sensor_id;sensor_type;location;lat;lon;timestamp;temperature;humidity
17984;DHT22;9117;52.420;20.728;2023-02-01T00:01:22;3.50;1.00
17984;DHT22;9117;52.420;20.728;2023-02-01T00:03:50;3.50;1.00
17984;DHT22;9117;52.420;20.728;2023-02-01T00:06:18;3.50;1.00
17984;DHT22;9117;52.420;20.728;2023-02-01T00:08:47;3.40;1.00
17984;DHT22;9117;52.420;20.728;2023-02-01T00:11:15;3.40;1.00
17984;DHT22;9117;52.420;20.728;2023-02-01T00:13:44;3.40;1.00
17984;DHT22;9117;52.420;20.728;2023-02-01T00:16:14;3.50;1.00
17984;DHT22;9117;52.420;20.728;2023-02-01T00:18:43;3.50;1.00
17984;DHT22;9117;52.420;20.728;2023-02-01T00:21:12;3.50;1.00
17984;DHT22;9117;52.420;20.728;2023-02-01T00:23:41;3.50;1.00
17984;DHT22;9117;52.420;20.728;2023-02-01T00:26:14;3.60;1.00
17984;DHT22;9117;52.420;20.728;2023-02-01T00:28:44;3.60;1.00
17984;DHT22;9117;52.420;20.728;2023-02-01T00:31:13;3.60;1.00
17984;DHT22;9117;52.420;20.728;2023-02-01T00:33:41;3.60;1.00
17984;DHT22;9117;52.420;20.728;2023-02-01T00:36:10;3.60;1.00
17984;DHT22;9117;52.420;20.728;2023-02-01T00:38:38;3.60;1.00
17984;DHT22;9117;52.420;20.728;2023-02-01T00:41:22;3.60;1.00
17984;DHT22;9117;52.420;20.728;2023-02-01T00:43:52;3.50;1.00
17984;DHT22;9117;52.420;20.728;2023-02-01T00:46:20;3.50;1.00
17984;DHT22;9117;52.420;20.728;2023-02-01T00:48:49;3.50;1.00
17984;DHT22;9117;52.420;20.728;2023-02-01T00:51:21;3.50;1.00
17984;DHT22;9117;52.420;20.728;2023-02-01T00:53:50;3.40;1.00
17984;DHT22;9117;52.420;20.728;2023-02-01T00:56:19;3.30;1.00
17984;DHT22;9117;52.420;20.728;2023-02-01T00:58:47;3.40;1.00
17984;DHT22;9117;52.420;20.728;2023-02-01T01:01:18;3.40;1.00
17984;DHT22;9117;52.420;20.728;2023-02-01T01:03:49;3.40;1.00
17984;DHT22;9117;52.420;20.728;2023-02-01T01:06:20;3.40;1.00
17984;DHT22;9117;52.420;20.728;2023-02-01T01:08:51;3.40;1.00
17984;DHT22;9117;52.420;20.728;2023-02-01T01:11:22;3.30;1.00
17984;DHT22;9117;52.420;20.728;2023-02-01T01:13:51;3.20;1.00
17984;DHT22;9117;52.420;20.728;2023-02-01T01:16:23;3.20;1.00
17984;DHT22;9117;52.420;20.728;2023-02-01T01:18:52;3.10;1.00
17984;DHT22;9117;52.420;20.728;2023-02-01T01:21:20;3.20;1.00
17984;DHT22;9117;52.420;20.728;2023-02-01T01:23:48;3.20;1.00
17984;DHT22;9117;52.420;20.728;2023-02-01T01:26:18;3.20;1.00
17984;DHT22;9117;52.420;20.728;2023-02-01T01:28:47;3.20;1.00
17984;DHT22;9117;52.420;20.728;2023-02-01T01:31:17;3.10;1.00
17984;DHT22;9117;52.420;20.728;2023-02-01T01:33:50;3.00;1.00
17984;DHT22;9117;52.420;20.728;2023-02-01T01:36:19;3.00;1.00
17984;DHT22;9117;52.420;20.728;2023-02-01T01:38:48;3.00;1.00
17984;DHT22;9117;52.420;20.728;2023-02-01T01:41:18;3.10;1.00
17984;DHT22;9117;52.420;20.728;2023-02-01T01:43:52;3.10;1.00
17984;DHT22;9117;52.420;20.728;2023-02-01T01:46:23;3.10;1.00
17984;DHT22;9117;52.420;20.728;2023-02-01T01:48:58;3.00;1.00
17984;DHT22;9117;52.420;20.728;2023-02-01T01:51:29;3.10;1.00
17984;DHT22;9117;52.420;20.728;2023-02-01T01:54:01;3.00;1.00
17984;DHT22;9117;52.420;20.728;2023-02-01T01:56:33;3.10;1.00
17984;DHT22;9117;52.420;20.728;2023-02-01T01:59:02;3.10;1.00
17984;DHT22;9117;52.420;20.728;2023-02-01T02:01:32;3.10;1.00
17984;DHT22;9117;52.420;20.728;2023-02-01T02:04:02;3.10;1.00
17984;DHT22;9117;52.420;20.728;2023-02-01T02:06:40;3.10;1.00
17984;DHT22;9117;52.420;20.728;2023-02-01T02:09:12;3.10;1.00
17984;DHT22;9117;52.420;20.728;2023-02-01T02:11:40;3.10;1.00
17984;DHT22;9117;52.420;20.728;2023-02-01T02:14:10;3.00;1.00
17984;DHT22;9117;52.420;20.728;2023-02-01T02:16:56;3.10;1.00
17984;DHT22;9117;52.420;20.728;2023-02-01T02:23:01;3.10;1.00
17984;DHT22;9117;52.420;20.728;2023-02-01T02:26:00;3.10;1.00
17984;DHT22;9117;52.420;20.728;2023-02-01T02:28:46;3.10;1.00
17984;DHT22;9117;52.420;20.728;2023-02-01T02:31:37;3.10;1.00
17984;DHT22;9117;52.420;20.728;2023-02-01T02:34:16;3.00;1.00
17984;DHT22;9117;52.420;20.728;2023-02-01T02:36:55;3.10;1.00
17984;DHT22;9117;52.420;20.728;2023-02-01T02:39:36;3.00;1.00
17984;DHT22;9117;52.420;20.728;2023-02-01T02:42:12;3.10;1.00
17984;DHT22;9117;52.420;20.728;2023-02-01T02:45:02;3.00;1.00
17984;DHT22;9117;52.420;20.728;2023-02-01T02:47:53;3.00;1.00
17984;DHT22;9117;52.420;20.728;2023-02-01T02:50:29;3.00;1.00
17984;DHT22;9117;52.420;20.728;2023-02-01T02:53:19;3.00;1.00
17984;DHT22;9117;52.420;20.728;2023-02-01T02:56:07;3.00;1.00
17984;DHT22;9117;52.420;20.728;2023-02-01T02:58:55;2.90;1.00
17984;DHT22;9117;52.420;20.728;2023-02-01T03:01:42;3.00;1.00
17984;DHT22;9117;52.420;20.728;2023-02-01T03:04:28;3.00;1.00
17984;DHT22;9117;52.420;20.728;2023-02-01T03:06:57;3.00;1.00
17984;DHT22;9117;52.420;20.728;2023-02-01T03:09:29;3.10;1.00
17984;DHT22;9117;52.420;20.728;2023-02-01T03:12:02;3.10;1.00
17984;DHT22;9117;52.420;20.728;2023-02-01T03:14:57;3.10;1.00
17984;DHT22;9117;52.420;20.728;2023-02-01T03:17:29;3.10;1.00
17984;DHT22;9117;52.420;20.728;2023-02-01T03:20:01;3.10;1.00
17984;DHT22;9117;52.420;20.728;2023-02-01T03:22:33;3.00;1.00
17984;DHT22;9117;52.420;20.728;2023-02-01T03:25:10;2.90;1.00
17984;DHT22;9117;52.420;20.728;2023-02-01T03:27:42;2.80;1.00
17984;DHT22;9117;52.420;20.728;2023-02-01T03:30:17;2.70;1.00
17984;DHT22;9117;52.420;20.728;2023-02-01T03:32:51;2.70;1.00
17984;DHT22;9117;52.420;20.728;2023-02-01T03:35:30;2.80;1.00
17984;DHT22;9117;52.420;20.728;2023-02-01T03:38:04;2.80;1.00
17984;DHT22;9117;52.420;20.728;2023-02-01T03:40:36;2.80;1.00
17984;DHT22;9117;52.420;20.728;2023-02-01T03:43:06;2.80;1.00
17984;DHT22;9117;52.420;20.728;2023-02-01T03:45:43;2.90;1.00
17984;DHT22;9117;52.420;20.728;2023-02-01T03:48:12;2.80;1.00
17984;DHT22;9117;52.420;20.728;2023-02-01T03:50:46;2.80;1.00
17984;DHT22;9117;52.420;20.728;2023-02-01T03:53:20;2.90;1.00
17984;DHT22;9117;52.420;20.728;2023-02-01T03:55:51;2.80;1.00
17984;DHT22;9117;52.420;20.728;2023-02-01T03:58:21;2.80;1.00
17984;DHT22;9117;52.420;20.728;2023-02-01T04:00:52;2.80;1.00
17984;DHT22;9117;52.420;20.728;2023-02-01T04:03:21;2.70;1.00
17984;DHT22;9117;52.420;20.728;2023-02-01T04:05:50;2.80;1.00
17984;DHT22;9117;52.420;20.728;2023-02-01T04:08:20;2.90;1.00
17984;DHT22;9117;52.420;20.728;2023-02-01T04:10:49;3.00;1.00
17984;DHT22;9117;52.420;20.728;2023-02-01T04:13:17;3.00;1.00
17984;DHT22;9117;52.420;20.728;2023-02-01T04:15:46;3.00;1.00
17984;DHT22;9117;52.420;20.728;2023-02-01T04:18:16;3.10;1.00
17984;DHT22;9117;52.420;20.728;2023-02-01T04:20:44;3.20;1.00
17984;DHT22;9117;52.420;20.728;2023-02-01T04:23:12;3.20;1.00
17984;DHT22;9117;52.420;20.728;2023-02-01T04:25:43;3.20;1.00
17984;DHT22;9117;52.420;20.728;2023-02-01T04:28:12;3.30;1.00
17984;DHT22;9117;52.420;20.728;2023-02-01T04:30:40;3.30;1.00
17984;DHT22;9117;52.420;20.728;2023-02-01T04:33:08;3.30;1.00
17984;DHT22;9117;52.420;20.728;2023-02-01T04:35:40;3.30;1.00
17984;DHT22;9117;52.420;20.728;2023-02-01T04:38:08;3.40;1.00
17984;DHT22;9117;52.420;20.728;2023-02-01T04:40:37;3.40;1.00
17984;DHT22;9117;52.420;20.728;2023-02-01T04:43:06;3.40;1.00
17984;DHT22;9117;52.420;20.728;2023-02-01T04:45:34;3.40;1.00
17984;DHT22;9117;52.420;20.728;2023-02-01T04:48:03;3.40;1.00
17984;DHT22;9117;52.420;20.728;2023-02-01T04:50:31;3.40;1.00
17984;DHT22;9117;52.420;20.728;2023-02-01T04:52:59;3.50;1.00
17984;DHT22;9117;52.420;20.728;2023-02-01T04:55:28;3.50;1.00
17984;DHT22;9117;52.420;20.728;2023-02-01T04:57:57;3.50;1.00
17984;DHT22;9117;52.420;20.728;2023-02-01T05:00:27;3.60;50.40
17984;DHT22;9117;52.420;20.728;2023-02-01T05:02:55;3.50;78.80
17984;DHT22;9117;52.420;20.728;2023-02-01T05:05:23;3.60;79.20
17984;DHT22;9117;52.420;20.728;2023-02-01T05:07:51;3.60;87.50
17984;DHT22;9117;52.420;20.728;2023-02-01T05:10:20;3.60;88.50
17984;DHT22;9117;52.420;20.728;2023-02-01T05:12:48;3.60;75.90
17984;DHT22;9117;52.420;20.728;2023-02-01T05:15:35;3.60;70.80
17984;DHT22;9117;52.420;20.728;2023-02-01T05:18:04;3.60;79.30
17984;DHT22;9117;52.420;20.728;2023-02-01T05:20:32;3.60;75.40
17984;DHT22;9117;52.420;20.728;2023-02-01T05:23:00;3.60;83.60
17984;DHT22;9117;52.420;20.728;2023-02-01T05:25:28;3.60;76.50
17984;DHT22;9117;52.420;20.728;2023-02-01T05:27:57;3.60;84.80
17984;DHT22;9117;52.420;20.728;2023-02-01T05:30:25;3.60;79.60
17984;DHT22;9117;52.420;20.728;2023-02-01T05:32:54;3.60;80.00
17984;DHT22;9117;52.420;20.728;2023-02-01T05:35:23;3.60;72.60
17984;DHT22;9117;52.420;20.728;2023-02-01T05:37:51;3.60;78.40
17984;DHT22;9117;52.420;20.728;2023-02-01T05:40:22;3.60;82.20
17984;DHT22;9117;52.420;20.728;2023-02-01T05:42:51;3.60;79.50
17984;DHT22;9117;52.420;20.728;2023-02-01T05:45:21;3.60;79.30
17984;DHT22;9117;52.420;20.728;2023-02-01T05:47:49;3.60;88.70
17984;DHT22;9117;52.420;20.728;2023-02-01T05:50:18;3.50;90.60
17984;DHT22;9117;52.420;20.728;2023-02-01T05:52:47;3.60;91.20
17984;DHT22;9117;52.420;20.728;2023-02-01T05:55:16;3.60;86.30
17984;DHT22;9117;52.420;20.728;2023-02-01T05:57:44;3.50;77.70
17984;DHT22;9117;52.420;20.728;2023-02-01T06:00:13;3.50;84.80
17984;DHT22;9117;52.420;20.728;2023-02-01T06:02:41;3.50;81.10
17984;DHT22;9117;52.420;20.728;2023-02-01T06:05:09;3.50;81.50
17984;DHT22;9117;52.420;20.728;2023-02-01T06:07:39;3.50;81.40
17984;DHT22;9117;52.420;20.728;2023-02-01T06:10:08;3.40;85.90
17984;DHT22;9117;52.420;20.728;2023-02-01T06:12:37;3.40;93.90
17984;DHT22;9117;52.420;20.728;2023-02-01T06:15:06;3.40;86.00
17984;DHT22;9117;52.420;20.728;2023-02-01T06:17:34;3.40;86.90
17984;DHT22;9117;52.420;20.728;2023-02-01T06:20:03;3.30;81.80
17984;DHT22;9117;52.420;20.728;2023-02-01T06:22:33;3.40;80.50
17984;DHT22;9117;52.420;20.728;2023-02-01T06:25:05;3.30;85.00
17984;DHT22;9117;52.420;20.728;2023-02-01T06:27:33;3.40;79.60
17984;DHT22;9117;52.420;20.728;2023-02-01T06:30:03;3.30;78.10
17984;DHT22;9117;52.420;20.728;2023-02-01T06:32:32;3.30;75.40
17984;DHT22;9117;52.420;20.728;2023-02-01T06:35:00;3.30;71.20
17984;DHT22;9117;52.420;20.728;2023-02-01T06:37:28;3.30;71.80
17984;DHT22;9117;52.420;20.728;2023-02-01T06:39:57;3.30;72.40
17984;DHT22;9117;52.420;20.728;2023-02-01T06:42:26;3.30;70.40
17984;DHT22;9117;52.420;20.728;2023-02-01T06:44:55;3.30;71.60
17984;DHT22;9117;52.420;20.728;2023-02-01T06:47:23;3.30;74.30
17984;DHT22;9117;52.420;20.728;2023-02-01T06:49:51;3.30;68.30
17984;DHT22;9117;52.420;20.728;2023-02-01T06:52:19;3.30;67.80
17984;DHT22;9117;52.420;20.728;2023-02-01T06:54:47;3.30;70.70
17984;DHT22;9117;52.420;20.728;2023-02-01T06:57:15;3.20;69.50
17984;DHT22;9117;52.420;20.728;2023-02-01T06:59:45;3.20;58.60
17984;DHT22;9117;52.420;20.728;2023-02-01T07:02:13;3.30;56.00
17984;DHT22;9117;52.420;20.728;2023-02-01T07:04:41;3.20;51.80
17984;DHT22;9117;52.420;20.728;2023-02-01T07:07:09;3.20;45.50
17984;DHT22;9117;52.420;20.728;2023-02-01T07:09:38;3.20;56.40
17984;DHT22;9117;52.420;20.728;2023-02-01T07:12:07;3.20;52.30
17984;DHT22;9117;52.420;20.728;2023-02-01T07:14:35;3.20;44.30
17984;DHT22;9117;52.420;20.728;2023-02-01T07:17:05;3.10;1.00
17984;DHT22;9117;52.420;20.728;2023-02-01T07:19:33;3.10;1.00
17984;DHT22;9117;52.420;20.728;2023-02-01T07:22:01;3.00;1.00
17984;DHT22;9117;52.420;20.728;2023-02-01T07:24:29;3.00;1.00
17984;DHT22;9117;52.420;20.728;2023-02-01T07:26:58;2.90;1.00
17984;DHT22;9117;52.420;20.728;2023-02-01T07:29:26;2.80;1.00
17984;DHT22;9117;52.420;20.728;2023-02-01T07:31:54;2.80;1.00
17984;DHT22;9117;52.420;20.728;2023-02-01T07:34:24;2.70;1.00
17984;DHT22;9117;52.420;20.728;2023-02-01T07:36:52;2.70;1.00
17984;DHT22;9117;52.420;20.728;2023-02-01T07:39:20;2.70;1.00
17984;DHT22;9117;52.420;20.728;2023-02-01T07:41:48;2.80;1.00
17984;DHT22;9117;52.420;20.728;2023-02-01T07:44:16;2.80;1.00
17984;DHT22;9117;52.420;20.728;2023-02-01T07:46:49;2.80;1.00
17984;DHT22;9117;52.420;20.728;2023-02-01T07:49:17;2.80;1.00
17984;DHT22;9117;52.420;20.728;2023-02-01T07:51:47;2.90;1.00
17984;DHT22;9117;52.420;20.728;2023-02-01T07:54:15;2.80;1.00
17984;DHT22;9117;52.420;20.728;2023-02-01T07:56:43;2.80;1.00
17984;DHT22;9117;52.420;20.728;2023-02-01T07:59:11;2.80;1.00
17984;DHT22;9117;52.420;20.728;2023-02-01T08:01:40;2.90;1.00
17984;DHT22;9117;52.420;20.728;2023-02-01T08:04:09;2.90;1.00
17984;DHT22;9117;52.420;20.728;2023-02-01T08:06:39;2.90;1.00
17984;DHT22;9117;52.420;20.728;2023-02-01T08:09:09;3.00;1.00
17984;DHT22;9117;52.420;20.728;2023-02-01T08:11:37;3.00;1.00
17984;DHT22;9117;52.420;20.728;2023-02-01T08:14:06;3.00;1.00
17984;DHT22;9117;52.420;20.728;2023-02-01T08:16:34;3.00;1.00
17984;DHT22;9117;52.420;20.728;2023-02-01T08:19:04;3.90;1.00
17984;DHT22;9117;52.420;20.728;2023-02-01T08:21:34;3.10;1.00
17984;DHT22;9117;52.420;20.728;2023-02-01T08:24:07;3.20;1.00
17984;DHT22;9117;52.420;20.728;2023-02-01T08:26:37;3.20;1.00
17984;DHT22;9117;52.420;20.728;2023-02-01T08:29:07;3.20;1.00
17984;DHT22;9117;52.420;20.728;2023-02-01T08:31:38;3.20;1.00
17984;DHT22;9117;52.420;20.728;2023-02-01T08:34:09;3.20;1.00
17984;DHT22;9117;52.420;20.728;2023-02-01T08:36:38;3.10;1.00
17984;DHT22;9117;52.420;20.728;2023-02-01T08:39:09;3.10;1.00
17984;DHT22;9117;52.420;20.728;2023-02-01T08:41:38;3.10;1.00
17984;DHT22;9117;52.420;20.728;2023-02-01T08:44:08;3.00;1.00
17984;DHT22;9117;52.420;20.728;2023-02-01T08:46:37;3.10;1.00
17984;DHT22;9117;52.420;20.728;2023-02-01T08:49:05;3.10;1.00
17984;DHT22;9117;52.420;20.728;2023-02-01T08:51:33;3.20;1.00
17984;DHT22;9117;52.420;20.728;2023-02-01T08:54:02;3.20;1.00
17984;DHT22;9117;52.420;20.728;2023-02-01T08:56:30;3.30;1.00
17984;DHT22;9117;52.420;20.728;2023-02-01T08:58:59;3.30;1.00
17984;DHT22;9117;52.420;20.728;2023-02-01T09:01:28;3.30;1.00
17984;DHT22;9117;52.420;20.728;2023-02-01T09:03:56;3.40;1.00
17984;DHT22;9117;52.420;20.728;2023-02-01T09:06:24;3.40;1.00
17984;DHT22;9117;52.420;20.728;2023-02-01T09:08:52;3.20;1.00
17984;DHT22;9117;52.420;20.728;2023-02-01T09:11:21;3.60;1.00
17984;DHT22;9117;52.420;20.728;2023-02-01T09:13:49;3.70;33.80
17984;DHT22;9117;52.420;20.728;2023-02-01T09:16:18;3.80;33.70
17984;DHT22;9117;52.420;20.728;2023-02-01T09:18:47;4.00;53.70
17984;DHT22;9117;52.420;20.728;2023-02-01T09:21:27;4.00;55.20
17984;DHT22;9117;52.420;20.728;2023-02-01T09:23:56;4.10;55.90
17984;DHT22;9117;52.420;20.728;2023-02-01T09:26:24;4.10;73.90
17984;DHT22;9117;52.420;20.728;2023-02-01T09:28:58;4.10;71.40
17984;DHT22;9117;52.420;20.728;2023-02-01T09:31:28;4.10;63.90
17984;DHT22;9117;52.420;20.728;2023-02-01T09:33:56;4.10;64.70
17984;DHT22;9117;52.420;20.728;2023-02-01T09:36:25;4.10;72.80
17984;DHT22;9117;52.420;20.728;2023-02-01T09:38:56;4.10;68.90
17984;DHT22;9117;52.420;20.728;2023-02-01T09:41:33;4.20;66.90
17984;DHT22;9117;52.420;20.728;2023-02-01T09:44:12;4.20;74.10
17984;DHT22;9117;52.420;20.728;2023-02-01T09:46:45;4.20;90.50
17984;DHT22;9117;52.420;20.728;2023-02-01T09:49:16;4.20;90.90
17984;DHT22;9117;52.420;20.728;2023-02-01T09:51:48;4.20;94.60
17984;DHT22;9117;52.420;20.728;2023-02-01T09:54:19;4.20;93.20
17984;DHT22;9117;52.420;20.728;2023-02-01T09:56:51;4.20;90.50
17984;DHT22;9117;52.420;20.728;2023-02-01T09:59:29;4.20;94.00
17984;DHT22;9117;52.420;20.728;2023-02-01T10:02:01;4.20;91.80
17984;DHT22;9117;52.420;20.728;2023-02-01T10:04:31;4.20;92.90
17984;DHT22;9117;52.420;20.728;2023-02-01T10:07:20;4.20;92.00
17984;DHT22;9117;52.420;20.728;2023-02-01T10:09:59;4.20;92.10
17984;DHT22;9117;52.420;20.728;2023-02-01T10:12:59;4.30;91.80
17984;DHT22;9117;52.420;20.728;2023-02-01T10:15:43;4.30;90.00
17984;DHT22;9117;52.420;20.728;2023-02-01T10:18:29;4.30;90.20
17984;DHT22;9117;52.420;20.728;2023-02-01T10:21:08;4.40;91.50
17984;DHT22;9117;52.420;20.728;2023-02-01T10:26:49;4.40;88.90
17984;DHT22;9117;52.420;20.728;2023-02-01T10:29:20;4.40;93.50
17984;DHT22;9117;52.420;20.728;2023-02-01T10:31:50;4.40;95.00
17984;DHT22;9117;52.420;20.728;2023-02-01T10:34:24;4.40;94.90
17984;DHT22;9117;52.420;20.728;2023-02-01T10:36:55;4.40;96.30
17984;DHT22;9117;52.420;20.728;2023-02-01T10:39:24;4.30;96.90
17984;DHT22;9117;52.420;20.728;2023-02-01T10:41:57;4.40;94.00
17984;DHT22;9117;52.420;20.728;2023-02-01T10:44:28;4.40;92.50
17984;DHT22;9117;52.420;20.728;2023-02-01T10:47:00;4.60;91.90
17984;DHT22;9117;52.420;20.728;2023-02-01T10:49:38;4.60;94.10
17984;DHT22;9117;52.420;20.728;2023-02-01T10:52:13;4.60;95.50
17984;DHT22;9117;52.420;20.728;2023-02-01T10:54:44;4.60;96.60
17984;DHT22;9117;52.420;20.728;2023-02-01T10:57:21;4.60;95.10
17984;DHT22;9117;52.420;20.728;2023-02-01T10:59:57;4.60;94.90
17984;DHT22;9117;52.420;20.728;2023-02-01T11:02:30;4.40;96.70
17984;DHT22;9117;52.420;20.728;2023-02-01T11:05:03;4.50;93.90
17984;DHT22;9117;52.420;20.728;2023-02-01T11:07:32;4.50;94.30
17984;DHT22;9117;52.420;20.728;2023-02-01T11:10:01;4.60;91.30
17984;DHT22;9117;52.420;20.728;2023-02-01T11:12:32;4.50;95.40
17984;DHT22;9117;52.420;20.728;2023-02-01T11:15:17;4.60;96.60
17984;DHT22;9117;52.420;20.728;2023-02-01T11:17:48;4.50;94.50
17984;DHT22;9117;52.420;20.728;2023-02-01T11:20:21;4.50;97.00
17984;DHT22;9117;52.420;20.728;2023-02-01T11:22:54;4.50;96.40
17984;DHT22;9117;52.420;20.728;2023-02-01T11:25:24;4.50;95.50
17984;DHT22;9117;52.420;20.728;2023-02-01T11:27:56;4.50;96.50
17984;DHT22;9117;52.420;20.728;2023-02-01T11:30:31;4.60;96.10
17984;DHT22;9117;52.420;20.728;2023-02-01T11:33:01;4.50;97.50
17984;DHT22;9117;52.420;20.728;2023-02-01T11:35:36;4.60;98.80
17984;DHT22;9117;52.420;20.728;2023-02-01T11:38:15;4.60;98.20
17984;DHT22;9117;52.420;20.728;2023-02-01T11:40:46;4.60;98.20
17984;DHT22;9117;52.420;20.728;2023-02-01T11:43:17;4.60;98.00
17984;DHT22;9117;52.420;20.728;2023-02-01T11:45:55;4.60;99.80
17984;DHT22;9117;52.420;20.728;2023-02-01T11:48:25;4.60;99.90
17984;DHT22;9117;52.420;20.728;2023-02-01T11:51:07;4.60;99.80
17984;DHT22;9117;52.420;20.728;2023-02-01T11:53:47;4.60;97.00
17984;DHT22;9117;52.420;20.728;2023-02-01T11:56:25;4.30;93.60
17984;DHT22;9117;52.420;20.728;2023-02-01T11:59:08;4.20;77.30
17984;DHT22;9117;52.420;20.728;2023-02-01T12:02:11;4.10;77.50
17984;DHT22;9117;52.420;20.728;2023-02-01T12:04:58;4.10;66.20
17984;DHT22;9117;52.420;20.728;2023-02-01T12:07:39;4.00;63.20
17984;DHT22;9117;52.420;20.728;2023-02-01T12:10:23;4.10;64.90
17984;DHT22;9117;52.420;20.728;2023-02-01T12:13:02;4.20;62.60
17984;DHT22;9117;52.420;20.728;2023-02-01T12:15:49;4.20;61.80
17984;DHT22;9117;52.420;20.728;2023-02-01T12:18:40;4.30;61.20
17984;DHT22;9117;52.420;20.728;2023-02-01T12:27:51;4.30;64.70
17984;DHT22;9117;52.420;20.728;2023-02-01T12:30:45;4.30;71.70
17984;DHT22;9117;52.420;20.728;2023-02-01T12:33:21;4.40;67.60
17984;DHT22;9117;52.420;20.728;2023-02-01T12:36:08;4.40;82.50
17984;DHT22;9117;52.420;20.728;2023-02-01T12:38:45;4.40;89.70
17984;DHT22;9117;52.420;20.728;2023-02-01T12:41:36;4.40;87.40
17984;DHT22;9117;52.420;20.728;2023-02-01T12:44:13;4.40;86.70
17984;DHT22;9117;52.420;20.728;2023-02-01T12:46:48;4.50;86.80
17984;DHT22;9117;52.420;20.728;2023-02-01T12:49:21;4.60;92.90
17984;DHT22;9117;52.420;20.728;2023-02-01T12:51:55;4.60;92.30
17984;DHT22;9117;52.420;20.728;2023-02-01T12:54:32;4.70;92.30
17984;DHT22;9117;52.420;20.728;2023-02-01T12:57:06;4.70;90.00
17984;DHT22;9117;52.420;20.728;2023-02-01T12:59:39;4.70;91.20
17984;DHT22;9117;52.420;20.728;2023-02-01T13:02:16;4.70;91.50
17984;DHT22;9117;52.420;20.728;2023-02-01T13:04:56;4.80;81.60
17984;DHT22;9117;52.420;20.728;2023-02-01T13:07:31;4.80;88.70
17984;DHT22;9117;52.420;20.728;2023-02-01T13:10:07;4.80;87.60
17984;DHT22;9117;52.420;20.728;2023-02-01T13:12:47;4.80;90.70
17984;DHT22;9117;52.420;20.728;2023-02-01T13:15:20;4.80;90.50
17984;DHT22;9117;52.420;20.728;2023-02-01T13:17:49;4.70;90.00
17984;DHT22;9117;52.420;20.728;2023-02-01T13:20:24;4.70;92.10
17984;DHT22;9117;52.420;20.728;2023-02-01T13:22:59;4.70;90.00
17984;DHT22;9117;52.420;20.728;2023-02-01T13:25:33;4.70;93.80
17984;DHT22;9117;52.420;20.728;2023-02-01T13:28:10;4.70;93.70
17984;DHT22;9117;52.420;20.728;2023-02-01T13:33:59;4.70;93.10
17984;DHT22;9117;52.420;20.728;2023-02-01T13:36:51;4.60;93.60
17984;DHT22;9117;52.420;20.728;2023-02-01T13:39:39;4.60;93.30
17984;DHT22;9117;52.420;20.728;2023-02-01T13:42:16;4.50;95.80
17984;DHT22;9117;52.420;20.728;2023-02-01T13:44:48;4.50;95.60
17984;DHT22;9117;52.420;20.728;2023-02-01T13:47:25;4.50;95.50
17984;DHT22;9117;52.420;20.728;2023-02-01T13:49:55;5.00;95.20
17984;DHT22;9117;52.420;20.728;2023-02-01T13:52:32;4.50;91.50
17984;DHT22;9117;52.420;20.728;2023-02-01T13:55:13;4.70;91.60
17984;DHT22;9117;52.420;20.728;2023-02-01T13:57:43;4.90;93.70
17984;DHT22;9117;52.420;20.728;2023-02-01T14:00:27;5.30;95.30
17984;DHT22;9117;52.420;20.728;2023-02-01T14:03:18;5.30;91.50
17984;DHT22;9117;52.420;20.728;2023-02-01T14:06:16;5.40;94.80
17984;DHT22;9117;52.420;20.728;2023-02-01T14:11:35;4.90;90.90
17984;DHT22;9117;52.420;20.728;2023-02-01T14:17:35;4.70;89.70
17984;DHT22;9117;52.420;20.728;2023-02-01T14:23:37;4.60;90.90
17984;DHT22;9117;52.420;20.728;2023-02-01T14:26:15;4.60;89.80
17984;DHT22;9117;52.420;20.728;2023-02-01T14:28:46;4.60;92.50
17984;DHT22;9117;52.420;20.728;2023-02-01T14:31:34;4.50;88.20
17984;DHT22;9117;52.420;20.728;2023-02-01T14:34:21;4.50;86.00
17984;DHT22;9117;52.420;20.728;2023-02-01T14:36:57;4.50;91.40
17984;DHT22;9117;52.420;20.728;2023-02-01T14:39:36;4.50;90.80
17984;DHT22;9117;52.420;20.728;2023-02-01T14:42:18;4.60;88.10
17984;DHT22;9117;52.420;20.728;2023-02-01T14:44:49;4.60;90.40
17984;DHT22;9117;52.420;20.728;2023-02-01T14:47:31;4.60;87.10
17984;DHT22;9117;52.420;20.728;2023-02-01T14:50:30;4.60;88.60
17984;DHT22;9117;52.420;20.728;2023-02-01T14:53:25;4.60;90.90
17984;DHT22;9117;52.420;20.728;2023-02-01T14:55:59;4.50;93.20
17984;DHT22;9117;52.420;20.728;2023-02-01T14:58:36;4.50;91.90
17984;DHT22;9117;52.420;20.728;2023-02-01T15:01:17;4.50;91.60
17984;DHT22;9117;52.420;20.728;2023-02-01T15:03:52;4.50;90.80
17984;DHT22;9117;52.420;20.728;2023-02-01T15:06:29;4.50;90.10
17984;DHT22;9117;52.420;20.728;2023-02-01T15:09:02;4.50;91.40
17984;DHT22;9117;52.420;20.728;2023-02-01T15:11:31;4.40;92.00
17984;DHT22;9117;52.420;20.728;2023-02-01T15:13:59;4.40;91.20
17984;DHT22;9117;52.420;20.728;2023-02-01T15:16:27;4.40;92.50
17984;DHT22;9117;52.420;20.728;2023-02-01T15:19:09;4.30;90.60
17984;DHT22;9117;52.420;20.728;2023-02-01T15:21:48;4.30;92.00
17984;DHT22;9117;52.420;20.728;2023-02-01T15:24:22;4.30;91.10
17984;DHT22;9117;52.420;20.728;2023-02-01T15:26:52;4.30;91.40
17984;DHT22;9117;52.420;20.728;2023-02-01T15:29:23;4.30;90.00
17984;DHT22;9117;52.420;20.728;2023-02-01T15:31:54;4.30;90.80
17984;DHT22;9117;52.420;20.728;2023-02-01T15:34:22;4.30;89.80
17984;DHT22;9117;52.420;20.728;2023-02-01T15:36:52;4.20;90.00
17984;DHT22;9117;52.420;20.728;2023-02-01T15:39:31;4.20;88.50
17984;DHT22;9117;52.420;20.728;2023-02-01T15:42:09;4.20;87.40
17984;DHT22;9117;52.420;20.728;2023-02-01T15:44:42;4.20;88.90
17984;DHT22;9117;52.420;20.728;2023-02-01T15:47:16;4.20;90.20
17984;DHT22;9117;52.420;20.728;2023-02-01T15:49:46;4.30;90.10
17984;DHT22;9117;52.420;20.728;2023-02-01T15:52:27;4.30;87.90
17984;DHT22;9117;52.420;20.728;2023-02-01T15:55:00;4.20;84.10
17984;DHT22;9117;52.420;20.728;2023-02-01T15:57:31;4.20;84.40
17984;DHT22;9117;52.420;20.728;2023-02-01T16:00:03;4.20;84.20
17984;DHT22;9117;52.420;20.728;2023-02-01T16:02:34;4.20;83.80
17984;DHT22;9117;52.420;20.728;2023-02-01T16:05:21;4.10;85.60
17984;DHT22;9117;52.420;20.728;2023-02-01T16:08:00;4.20;82.40
17984;DHT22;9117;52.420;20.728;2023-02-01T16:10:31;4.10;84.60
17984;DHT22;9117;52.420;20.728;2023-02-01T16:13:05;4.10;81.10
17984;DHT22;9117;52.420;20.728;2023-02-01T16:15:33;4.10;84.40
17984;DHT22;9117;52.420;20.728;2023-02-01T16:18:02;4.10;83.30
17984;DHT22;9117;52.420;20.728;2023-02-01T16:20:30;4.10;90.30
17984;DHT22;9117;52.420;20.728;2023-02-01T16:23:01;4.10;88.60
17984;DHT22;9117;52.420;20.728;2023-02-01T16:25:29;4.10;88.80
17984;DHT22;9117;52.420;20.728;2023-02-01T16:27:58;4.10;84.80
17984;DHT22;9117;52.420;20.728;2023-02-01T16:30:26;4.10;80.80
17984;DHT22;9117;52.420;20.728;2023-02-01T16:32:55;4.00;73.70
17984;DHT22;9117;52.420;20.728;2023-02-01T16:35:27;4.00;79.40
17984;DHT22;9117;52.420;20.728;2023-02-01T16:37:58;4.00;74.90
17984;DHT22;9117;52.420;20.728;2023-02-01T16:40:28;4.00;85.00
17984;DHT22;9117;52.420;20.728;2023-02-01T16:42:56;3.90;81.00
17984;DHT22;9117;52.420;20.728;2023-02-01T16:45:25;3.90;85.20
17984;DHT22;9117;52.420;20.728;2023-02-01T16:47:54;3.90;78.50
17984;DHT22;9117;52.420;20.728;2023-02-01T16:50:24;3.90;81.70
17984;DHT22;9117;52.420;20.728;2023-02-01T16:52:54;3.90;68.60
17984;DHT22;9117;52.420;20.728;2023-02-01T16:55:22;3.90;84.10